Mesena, Georgia
Current Conditions -  °F | °C
As of 9:15 AM on Monday 26 Jan 2015 (Local Time) from KHQU Reporting Station
Clear Clear  
Wind Chill: 45°   Ceiling: Unl
Heat Index: 49°   Visibility: 10mi
Dew Point: 44°   Wind: 10mph
Humidity: 81%   Direction: 270°W
Pressure: 29.76"   Gusts: 21mph
Location:  33.46°N, 82.59°W
Report Text: KHQU 261415Z AUTO 27009G18KT 240V300 10SM CLR 10/07 A2976 RMK AO1 T00970065
Loading
Personal Weather Stations






























Interactive Weather Map New forecast layout! Learn more

10-Day Weather Forecast

Advertisements
Track Severe Weather on mobile